sensor_id;sensor_type;location;lat;lon;timestamp;P1;durP1;ratioP1;P2;durP2;ratioP2
17806;SDS011;9027;48.938;9.182;2022-12-10T00:00:27;26.63;;;19.30;;
17806;SDS011;9027;48.938;9.182;2022-12-10T00:01:59;25.97;;;17.90;;
17806;SDS011;9027;48.938;9.182;2022-12-10T00:03:30;23.37;;;17.67;;
17806;SDS011;9027;48.938;9.182;2022-12-10T00:05:03;26.17;;;17.47;;
17806;SDS011;9027;48.938;9.182;2022-12-10T00:06:35;26.90;;;18.13;;
17806;SDS011;9027;48.938;9.182;2022-12-10T00:08:08;26.03;;;17.93;;
17806;SDS011;9027;48.938;9.182;2022-12-10T00:09:40;23.23;;;17.47;;
17806;SDS011;9027;48.938;9.182;2022-12-10T00:11:14;25.73;;;18.03;;
17806;SDS011;9027;48.938;9.182;2022-12-10T00:12:47;30.10;;;21.00;;
17806;SDS011;9027;48.938;9.182;2022-12-10T00:14:19;184.43;;;103.67;;
17806;SDS011;9027;48.938;9.182;2022-12-10T00:15:51;198.73;;;115.87;;
17806;SDS011;9027;48.938;9.182;2022-12-10T00:17:22;55.13;;;34.50;;
17806;SDS011;9027;48.938;9.182;2022-12-10T00:18:54;30.33;;;22.53;;
17806;SDS011;9027;48.938;9.182;2022-12-10T00:20:25;28.40;;;18.97;;
17806;SDS011;9027;48.938;9.182;2022-12-10T00:21:57;28.67;;;17.80;;
17806;SDS011;9027;48.938;9.182;2022-12-10T00:23:29;26.63;;;18.47;;
17806;SDS011;9027;48.938;9.182;2022-12-10T00:25:02;27.10;;;18.13;;
17806;SDS011;9027;48.938;9.182;2022-12-10T00:26:36;23.40;;;17.07;;
17806;SDS011;9027;48.938;9.182;2022-12-10T00:28:09;27.70;;;17.40;;
17806;SDS011;9027;48.938;9.182;2022-12-10T00:29:40;25.13;;;17.10;;
17806;SDS011;9027;48.938;9.182;2022-12-10T00:31:13;26.37;;;18.37;;
17806;SDS011;9027;48.938;9.182;2022-12-10T00:32:45;24.17;;;17.23;;
17806;SDS011;9027;48.938;9.182;2022-12-10T00:34:17;27.37;;;18.60;;
17806;SDS011;9027;48.938;9.182;2022-12-10T00:35:49;24.27;;;17.50;;
17806;SDS011;9027;48.938;9.182;2022-12-10T00:37:20;24.27;;;18.40;;
17806;SDS011;9027;48.938;9.182;2022-12-10T00:38:53;24.23;;;17.47;;
17806;SDS011;9027;48.938;9.182;2022-12-10T00:40:25;27.53;;;18.60;;
17806;SDS011;9027;48.938;9.182;2022-12-10T00:41:58;26.73;;;17.90;;
17806;SDS011;9027;48.938;9.182;2022-12-10T00:43:30;25.10;;;17.50;;
17806;SDS011;9027;48.938;9.182;2022-12-10T00:45:01;26.87;;;17.70;;
17806;SDS011;9027;48.938;9.182;2022-12-10T00:46:33;25.17;;;17.87;;
17806;SDS011;9027;48.938;9.182;2022-12-10T00:48:05;23.73;;;16.80;;
17806;SDS011;9027;48.938;9.182;2022-12-10T00:49:37;23.87;;;17.20;;
17806;SDS011;9027;48.938;9.182;2022-12-10T00:51:09;26.23;;;18.13;;
17806;SDS011;9027;48.938;9.182;2022-12-10T00:52:43;24.63;;;16.97;;
17806;SDS011;9027;48.938;9.182;2022-12-10T00:54:15;21.57;;;16.60;;
17806;SDS011;9027;48.938;9.182;2022-12-10T00:55:47;27.43;;;18.73;;
17806;SDS011;9027;48.938;9.182;2022-12-10T00:57:20;24.63;;;17.50;;
17806;SDS011;9027;48.938;9.182;2022-12-10T00:58:52;27.67;;;18.60;;
17806;SDS011;9027;48.938;9.182;2022-12-10T01:00:24;30.07;;;19.93;;
17806;SDS011;9027;48.938;9.182;2022-12-10T01:01:56;26.43;;;19.30;;
17806;SDS011;9027;48.938;9.182;2022-12-10T01:03:28;28.83;;;18.30;;
17806;SDS011;9027;48.938;9.182;2022-12-10T01:04:59;27.33;;;17.97;;
17806;SDS011;9027;48.938;9.182;2022-12-10T01:06:31;27.60;;;19.63;;
17806;SDS011;9027;48.938;9.182;2022-12-10T01:08:04;25.07;;;17.73;;
17806;SDS011;9027;48.938;9.182;2022-12-10T01:09:36;26.80;;;17.73;;
17806;SDS011;9027;48.938;9.182;2022-12-10T01:11:09;24.10;;;17.10;;
17806;SDS011;9027;48.938;9.182;2022-12-10T01:12:42;30.67;;;18.13;;
17806;SDS011;9027;48.938;9.182;2022-12-10T01:14:15;25.67;;;17.23;;
17806;SDS011;9027;48.938;9.182;2022-12-10T01:15:51;25.47;;;17.87;;
17806;SDS011;9027;48.938;9.182;2022-12-10T01:17:22;26.17;;;17.57;;
17806;SDS011;9027;48.938;9.182;2022-12-10T01:18:54;24.67;;;17.03;;
17806;SDS011;9027;48.938;9.182;2022-12-10T01:20:27;24.00;;;17.73;;
17806;SDS011;9027;48.938;9.182;2022-12-10T01:21:57;24.67;;;17.57;;
17806;SDS011;9027;48.938;9.182;2022-12-10T01:23:31;27.17;;;18.30;;
17806;SDS011;9027;48.938;9.182;2022-12-10T01:25:03;24.77;;;17.47;;
17806;SDS011;9027;48.938;9.182;2022-12-10T01:26:35;25.97;;;18.13;;
17806;SDS011;9027;48.938;9.182;2022-12-10T01:28:08;26.13;;;18.33;;
17806;SDS011;9027;48.938;9.182;2022-12-10T01:29:39;25.87;;;17.63;;
17806;SDS011;9027;48.938;9.182;2022-12-10T01:31:12;27.73;;;17.80;;
17806;SDS011;9027;48.938;9.182;2022-12-10T01:32:46;23.03;;;16.70;;
17806;SDS011;9027;48.938;9.182;2022-12-10T01:34:18;23.30;;;17.20;;
17806;SDS011;9027;48.938;9.182;2022-12-10T01:35:50;25.60;;;16.80;;
17806;SDS011;9027;48.938;9.182;2022-12-10T01:37:21;25.50;;;16.50;;
17806;SDS011;9027;48.938;9.182;2022-12-10T01:38:53;22.43;;;16.37;;
17806;SDS011;9027;48.938;9.182;2022-12-10T01:40:24;23.93;;;17.13;;
17806;SDS011;9027;48.938;9.182;2022-12-10T01:41:57;25.57;;;17.30;;
17806;SDS011;9027;48.938;9.182;2022-12-10T01:45:28;25.90;;;17.60;;
17806;SDS011;9027;48.938;9.182;2022-12-10T01:47:01;24.20;;;15.97;;
17806;SDS011;9027;48.938;9.182;2022-12-10T01:48:32;21.57;;;16.43;;
17806;SDS011;9027;48.938;9.182;2022-12-10T01:50:06;26.17;;;17.63;;
17806;SDS011;9027;48.938;9.182;2022-12-10T01:51:41;23.77;;;16.93;;
17806;SDS011;9027;48.938;9.182;2022-12-10T01:53:14;23.83;;;17.47;;
17806;SDS011;9027;48.938;9.182;2022-12-10T01:54:47;24.87;;;17.30;;
17806;SDS011;9027;48.938;9.182;2022-12-10T01:56:18;24.40;;;17.13;;
17806;SDS011;9027;48.938;9.182;2022-12-10T01:57:52;24.67;;;16.87;;
17806;SDS011;9027;48.938;9.182;2022-12-10T01:59:25;22.53;;;16.73;;
17806;SDS011;9027;48.938;9.182;2022-12-10T02:01:02;25.10;;;17.27;;
17806;SDS011;9027;48.938;9.182;2022-12-10T02:02:40;21.37;;;16.83;;
17806;SDS011;9027;48.938;9.182;2022-12-10T02:04:19;23.67;;;17.37;;
17806;SDS011;9027;48.938;9.182;2022-12-10T02:05:58;22.37;;;16.37;;
17806;SDS011;9027;48.938;9.182;2022-12-10T02:07:39;24.07;;;16.23;;
17806;SDS011;9027;48.938;9.182;2022-12-10T02:09:21;24.93;;;17.40;;
17806;SDS011;9027;48.938;9.182;2022-12-10T02:11:01;21.47;;;15.57;;
17806;SDS011;9027;48.938;9.182;2022-12-10T02:12:44;22.90;;;16.47;;
17806;SDS011;9027;48.938;9.182;2022-12-10T02:14:20;24.17;;;17.40;;
17806;SDS011;9027;48.938;9.182;2022-12-10T02:16:00;22.63;;;16.33;;
17806;SDS011;9027;48.938;9.182;2022-12-10T02:17:36;23.33;;;16.53;;
17806;SDS011;9027;48.938;9.182;2022-12-10T02:19:13;24.23;;;16.50;;
17806;SDS011;9027;48.938;9.182;2022-12-10T02:20:51;24.43;;;16.30;;
17806;SDS011;9027;48.938;9.182;2022-12-10T02:22:28;24.70;;;17.37;;
17806;SDS011;9027;48.938;9.182;2022-12-10T02:24:03;23.87;;;17.70;;
17806;SDS011;9027;48.938;9.182;2022-12-10T02:25:41;25.43;;;17.10;;
17806;SDS011;9027;48.938;9.182;2022-12-10T02:27:19;22.00;;;16.20;;
17806;SDS011;9027;48.938;9.182;2022-12-10T02:29:06;24.87;;;17.83;;
17806;SDS011;9027;48.938;9.182;2022-12-10T02:30:43;22.70;;;15.83;;
17806;SDS011;9027;48.938;9.182;2022-12-10T02:32:17;23.00;;;17.13;;
17806;SDS011;9027;48.938;9.182;2022-12-10T02:33:55;21.53;;;15.90;;
17806;SDS011;9027;48.938;9.182;2022-12-10T02:35:30;22.13;;;17.07;;
17806;SDS011;9027;48.938;9.182;2022-12-10T02:37:07;23.27;;;17.30;;
17806;SDS011;9027;48.938;9.182;2022-12-10T02:38:44;24.57;;;17.30;;
17806;SDS011;9027;48.938;9.182;2022-12-10T02:40:19;24.50;;;17.40;;
17806;SDS011;9027;48.938;9.182;2022-12-10T02:41:56;26.83;;;16.93;;
17806;SDS011;9027;48.938;9.182;2022-12-10T02:43:32;25.40;;;17.23;;
17806;SDS011;9027;48.938;9.182;2022-12-10T02:45:07;25.20;;;17.20;;
17806;SDS011;9027;48.938;9.182;2022-12-10T02:46:40;26.37;;;17.93;;
17806;SDS011;9027;48.938;9.182;2022-12-10T02:48:15;24.80;;;17.30;;
17806;SDS011;9027;48.938;9.182;2022-12-10T02:49:49;24.10;;;16.47;;
17806;SDS011;9027;48.938;9.182;2022-12-10T02:51:25;23.57;;;16.60;;
17806;SDS011;9027;48.938;9.182;2022-12-10T02:52:57;24.70;;;17.27;;
17806;SDS011;9027;48.938;9.182;2022-12-10T02:54:37;23.07;;;16.63;;
17806;SDS011;9027;48.938;9.182;2022-12-10T02:56:14;24.63;;;16.30;;
17806;SDS011;9027;48.938;9.182;2022-12-10T02:58:01;21.13;;;16.00;;
17806;SDS011;9027;48.938;9.182;2022-12-10T02:59:42;23.10;;;16.83;;
17806;SDS011;9027;48.938;9.182;2022-12-10T03:01:47;22.43;;;15.40;;
17806;SDS011;9027;48.938;9.182;2022-12-10T03:03:31;23.20;;;14.77;;
17806;SDS011;9027;48.938;9.182;2022-12-10T03:05:11;23.40;;;16.03;;
17806;SDS011;9027;48.938;9.182;2022-12-10T03:06:47;23.30;;;16.13;;
17806;SDS011;9027;48.938;9.182;2022-12-10T03:08:23;20.77;;;15.50;;
17806;SDS011;9027;48.938;9.182;2022-12-10T03:10:00;23.97;;;16.53;;
17806;SDS011;9027;48.938;9.182;2022-12-10T03:11:35;22.40;;;15.97;;
17806;SDS011;9027;48.938;9.182;2022-12-10T03:13:10;22.93;;;16.67;;
17806;SDS011;9027;48.938;9.182;2022-12-10T03:14:44;28.27;;;17.13;;
17806;SDS011;9027;48.938;9.182;2022-12-10T03:16:16;24.63;;;17.13;;
17806;SDS011;9027;48.938;9.182;2022-12-10T03:17:50;23.87;;;16.97;;
17806;SDS011;9027;48.938;9.182;2022-12-10T03:19:25;25.80;;;16.40;;
17806;SDS011;9027;48.938;9.182;2022-12-10T03:21:03;24.50;;;17.53;;
17806;SDS011;9027;48.938;9.182;2022-12-10T03:22:37;24.00;;;17.10;;
17806;SDS011;9027;48.938;9.182;2022-12-10T03:24:12;22.67;;;16.57;;
17806;SDS011;9027;48.938;9.182;2022-12-10T03:25:46;21.33;;;15.50;;
17806;SDS011;9027;48.938;9.182;2022-12-10T03:27:20;25.53;;;16.90;;
17806;SDS011;9027;48.938;9.182;2022-12-10T03:28:55;23.80;;;17.03;;
17806;SDS011;9027;48.938;9.182;2022-12-10T03:30:31;30.47;;;17.07;;
17806;SDS011;9027;48.938;9.182;2022-12-10T03:32:05;25.33;;;17.00;;
17806;SDS011;9027;48.938;9.182;2022-12-10T03:33:38;22.47;;;17.10;;
17806;SDS011;9027;48.938;9.182;2022-12-10T03:35:10;24.57;;;17.27;;
17806;SDS011;9027;48.938;9.182;2022-12-10T03:36:43;26.27;;;17.87;;
17806;SDS011;9027;48.938;9.182;2022-12-10T03:38:16;24.67;;;17.63;;
17806;SDS011;9027;48.938;9.182;2022-12-10T03:39:48;24.47;;;17.27;;
17806;SDS011;9027;48.938;9.182;2022-12-10T03:41:20;25.50;;;17.97;;
17806;SDS011;9027;48.938;9.182;2022-12-10T03:42:52;26.37;;;17.37;;
17806;SDS011;9027;48.938;9.182;2022-12-10T03:44:27;22.23;;;16.73;;
17806;SDS011;9027;48.938;9.182;2022-12-10T03:46:00;23.03;;;16.10;;
17806;SDS011;9027;48.938;9.182;2022-12-10T03:47:32;26.53;;;18.33;;
17806;SDS011;9027;48.938;9.182;2022-12-10T03:49:05;24.37;;;16.27;;
17806;SDS011;9027;48.938;9.182;2022-12-10T03:50:37;24.07;;;16.93;;
17806;SDS011;9027;48.938;9.182;2022-12-10T03:52:09;24.50;;;16.80;;
17806;SDS011;9027;48.938;9.182;2022-12-10T03:53:40;26.80;;;18.00;;
17806;SDS011;9027;48.938;9.182;2022-12-10T03:55:12;24.90;;;17.83;;
17806;SDS011;9027;48.938;9.182;2022-12-10T03:56:44;24.17;;;16.97;;
17806;SDS011;9027;48.938;9.182;2022-12-10T03:58:16;26.43;;;18.20;;
17806;SDS011;9027;48.938;9.182;2022-12-10T03:59:48;26.03;;;16.93;;
17806;SDS011;9027;48.938;9.182;2022-12-10T04:01:20;23.63;;;16.13;;
17806;SDS011;9027;48.938;9.182;2022-12-10T04:02:52;24.83;;;17.10;;
17806;SDS011;9027;48.938;9.182;2022-12-10T04:04:25;25.57;;;18.20;;
17806;SDS011;9027;48.938;9.182;2022-12-10T04:06:00;27.43;;;17.47;;
17806;SDS011;9027;48.938;9.182;2022-12-10T04:07:31;25.57;;;17.57;;
17806;SDS011;9027;48.938;9.182;2022-12-10T04:09:03;24.27;;;17.57;;
17806;SDS011;9027;48.938;9.182;2022-12-10T04:10:36;26.67;;;17.13;;
17806;SDS011;9027;48.938;9.182;2022-12-10T04:12:08;24.13;;;17.07;;
17806;SDS011;9027;48.938;9.182;2022-12-10T04:13:40;25.00;;;17.63;;
17806;SDS011;9027;48.938;9.182;2022-12-10T04:15:29;26.10;;;17.83;;
17806;SDS011;9027;48.938;9.182;2022-12-10T04:17:19;26.83;;;17.83;;
17806;SDS011;9027;48.938;9.182;2022-12-10T04:18:51;26.37;;;17.83;;
17806;SDS011;9027;48.938;9.182;2022-12-10T04:20:24;28.03;;;19.60;;
17806;SDS011;9027;48.938;9.182;2022-12-10T04:22:13;28.10;;;19.37;;
17806;SDS011;9027;48.938;9.182;2022-12-10T04:24:03;29.67;;;18.43;;
17806;SDS011;9027;48.938;9.182;2022-12-10T04:25:53;27.53;;;18.70;;
17806;SDS011;9027;48.938;9.182;2022-12-10T04:27:42;29.53;;;19.57;;
17806;SDS011;9027;48.938;9.182;2022-12-10T04:29:14;27.63;;;18.70;;
17806;SDS011;9027;48.938;9.182;2022-12-10T04:30:45;25.37;;;18.07;;
17806;SDS011;9027;48.938;9.182;2022-12-10T04:32:17;27.27;;;18.60;;
17806;SDS011;9027;48.938;9.182;2022-12-10T04:33:49;27.70;;;18.20;;
17806;SDS011;9027;48.938;9.182;2022-12-10T04:35:20;26.83;;;18.87;;
17806;SDS011;9027;48.938;9.182;2022-12-10T04:36:54;28.27;;;17.30;;
17806;SDS011;9027;48.938;9.182;2022-12-10T04:38:26;27.67;;;19.20;;
17806;SDS011;9027;48.938;9.182;2022-12-10T04:39:57;25.77;;;17.93;;
17806;SDS011;9027;48.938;9.182;2022-12-10T04:41:29;25.70;;;17.83;;
17806;SDS011;9027;48.938;9.182;2022-12-10T04:43:00;26.37;;;18.53;;
17806;SDS011;9027;48.938;9.182;2022-12-10T04:44:32;25.60;;;17.73;;
17806;SDS011;9027;48.938;9.182;2022-12-10T04:46:04;28.03;;;18.60;;
17806;SDS011;9027;48.938;9.182;2022-12-10T04:47:36;25.37;;;17.40;;
17806;SDS011;9027;48.938;9.182;2022-12-10T04:49:08;28.03;;;18.27;;
17806;SDS011;9027;48.938;9.182;2022-12-10T04:50:40;25.10;;;17.77;;
17806;SDS011;9027;48.938;9.182;2022-12-10T04:52:14;25.77;;;17.83;;
17806;SDS011;9027;48.938;9.182;2022-12-10T04:53:47;28.73;;;19.40;;
17806;SDS011;9027;48.938;9.182;2022-12-10T04:55:18;24.87;;;17.20;;
17806;SDS011;9027;48.938;9.182;2022-12-10T04:56:50;26.43;;;18.10;;
17806;SDS011;9027;48.938;9.182;2022-12-10T04:58:22;27.40;;;17.83;;
17806;SDS011;9027;48.938;9.182;2022-12-10T04:59:53;27.67;;;18.30;;
17806;SDS011;9027;48.938;9.182;2022-12-10T05:01:25;25.03;;;18.10;;
17806;SDS011;9027;48.938;9.182;2022-12-10T05:02:57;25.13;;;18.43;;
17806;SDS011;9027;48.938;9.182;2022-12-10T05:04:29;25.43;;;17.20;;
17806;SDS011;9027;48.938;9.182;2022-12-10T05:06:01;24.97;;;18.40;;
17806;SDS011;9027;48.938;9.182;2022-12-10T05:07:34;26.13;;;18.07;;
17806;SDS011;9027;48.938;9.182;2022-12-10T05:09:06;25.97;;;18.10;;
17806;SDS011;9027;48.938;9.182;2022-12-10T05:10:38;26.70;;;18.70;;
17806;SDS011;9027;48.938;9.182;2022-12-10T05:12:10;26.57;;;17.10;;
17806;SDS011;9027;48.938;9.182;2022-12-10T05:13:42;24.40;;;17.07;;
17806;SDS011;9027;48.938;9.182;2022-12-10T05:15:15;25.40;;;17.03;;
17806;SDS011;9027;48.938;9.182;2022-12-10T05:16:48;27.37;;;17.77;;
17806;SDS011;9027;48.938;9.182;2022-12-10T05:18:19;26.23;;;17.40;;
17806;SDS011;9027;48.938;9.182;2022-12-10T05:19:51;27.27;;;18.70;;
17806;SDS011;9027;48.938;9.182;2022-12-10T05:21:26;25.87;;;18.40;;
17806;SDS011;9027;48.938;9.182;2022-12-10T05:23:20;24.57;;;18.50;;
17806;SDS011;9027;48.938;9.182;2022-12-10T05:24:59;24.23;;;17.10;;
17806;SDS011;9027;48.938;9.182;2022-12-10T05:26:31;26.47;;;19.03;;
17806;SDS011;9027;48.938;9.182;2022-12-10T05:28:03;25.13;;;17.60;;
17806;SDS011;9027;48.938;9.182;2022-12-10T05:29:35;25.23;;;18.57;;
17806;SDS011;9027;48.938;9.182;2022-12-10T05:31:10;27.13;;;18.50;;
17806;SDS011;9027;48.938;9.182;2022-12-10T05:32:42;25.70;;;17.23;;
17806;SDS011;9027;48.938;9.182;2022-12-10T05:34:14;25.83;;;18.10;;
17806;SDS011;9027;48.938;9.182;2022-12-10T05:35:50;26.83;;;18.50;;
17806;SDS011;9027;48.938;9.182;2022-12-10T05:37:23;27.37;;;18.00;;
17806;SDS011;9027;48.938;9.182;2022-12-10T05:38:56;25.53;;;17.90;;
17806;SDS011;9027;48.938;9.182;2022-12-10T05:40:29;24.80;;;17.57;;
17806;SDS011;9027;48.938;9.182;2022-12-10T05:42:01;28.40;;;17.53;;
17806;SDS011;9027;48.938;9.182;2022-12-10T05:43:33;25.90;;;18.13;;
17806;SDS011;9027;48.938;9.182;2022-12-10T05:45:06;27.30;;;18.33;;
17806;SDS011;9027;48.938;9.182;2022-12-10T05:46:38;26.13;;;18.63;;
17806;SDS011;9027;48.938;9.182;2022-12-10T05:48:11;24.80;;;17.73;;
17806;SDS011;9027;48.938;9.182;2022-12-10T05:49:42;27.87;;;18.03;;
17806;SDS011;9027;48.938;9.182;2022-12-10T05:51:15;24.93;;;18.23;;
17806;SDS011;9027;48.938;9.182;2022-12-10T05:52:49;27.07;;;18.37;;
17806;SDS011;9027;48.938;9.182;2022-12-10T05:54:23;26.83;;;18.23;;
17806;SDS011;9027;48.938;9.182;2022-12-10T05:55:59;27.80;;;18.33;;
17806;SDS011;9027;48.938;9.182;2022-12-10T05:57:31;27.07;;;18.53;;
17806;SDS011;9027;48.938;9.182;2022-12-10T05:59:03;26.10;;;17.80;;
17806;SDS011;9027;48.938;9.182;2022-12-10T06:00:38;26.57;;;18.73;;
17806;SDS011;9027;48.938;9.182;2022-12-10T06:02:09;24.77;;;18.13;;
17806;SDS011;9027;48.938;9.182;2022-12-10T06:03:41;24.03;;;17.17;;
17806;SDS011;9027;48.938;9.182;2022-12-10T06:05:12;28.87;;;19.00;;
17806;SDS011;9027;48.938;9.182;2022-12-10T06:06:44;28.97;;;19.30;;
17806;SDS011;9027;48.938;9.182;2022-12-10T06:08:17;27.83;;;19.07;;
17806;SDS011;9027;48.938;9.182;2022-12-10T06:09:49;24.73;;;18.77;;
17806;SDS011;9027;48.938;9.182;2022-12-10T06:11:22;27.23;;;17.67;;
17806;SDS011;9027;48.938;9.182;2022-12-10T06:12:53;27.60;;;19.13;;
17806;SDS011;9027;48.938;9.182;2022-12-10T06:14:25;28.80;;;18.67;;
17806;SDS011;9027;48.938;9.182;2022-12-10T06:15:57;29.90;;;19.57;;
17806;SDS011;9027;48.938;9.182;2022-12-10T06:17:29;24.77;;;17.30;;
17806;SDS011;9027;48.938;9.182;2022-12-10T06:19:01;25.40;;;18.07;;
17806;SDS011;9027;48.938;9.182;2022-12-10T06:20:33;25.90;;;18.13;;
17806;SDS011;9027;48.938;9.182;2022-12-10T06:22:04;27.37;;;18.17;;
17806;SDS011;9027;48.938;9.182;2022-12-10T06:23:36;25.77;;;18.37;;
17806;SDS011;9027;48.938;9.182;2022-12-10T06:25:10;29.70;;;19.03;;
17806;SDS011;9027;48.938;9.182;2022-12-10T06:26:42;29.57;;;20.13;;
17806;SDS011;9027;48.938;9.182;2022-12-10T06:28:13;27.43;;;18.67;;
17806;SDS011;9027;48.938;9.182;2022-12-10T06:29:44;27.73;;;19.27;;
17806;SDS011;9027;48.938;9.182;2022-12-10T06:31:16;27.27;;;18.47;;
17806;SDS011;9027;48.938;9.182;2022-12-10T06:32:49;25.83;;;18.43;;
17806;SDS011;9027;48.938;9.182;2022-12-10T06:34:20;23.90;;;17.77;;
17806;SDS011;9027;48.938;9.182;2022-12-10T06:35:52;26.33;;;18.23;;
17806;SDS011;9027;48.938;9.182;2022-12-10T06:37:23;27.43;;;19.03;;
17806;SDS011;9027;48.938;9.182;2022-12-10T06:38:55;27.83;;;18.70;;
17806;SDS011;9027;48.938;9.182;2022-12-10T06:40:28;25.83;;;17.87;;
17806;SDS011;9027;48.938;9.182;2022-12-10T06:42:00;25.03;;;17.97;;
17806;SDS011;9027;48.938;9.182;2022-12-10T06:43:33;27.90;;;19.07;;
17806;SDS011;9027;48.938;9.182;2022-12-10T06:45:05;25.83;;;17.70;;
17806;SDS011;9027;48.938;9.182;2022-12-10T06:46:37;24.70;;;17.60;;
17806;SDS011;9027;48.938;9.182;2022-12-10T06:48:09;26.37;;;18.90;;
17806;SDS011;9027;48.938;9.182;2022-12-10T06:49:41;23.83;;;16.93;;
17806;SDS011;9027;48.938;9.182;2022-12-10T06:51:13;25.33;;;18.57;;
17806;SDS011;9027;48.938;9.182;2022-12-10T06:52:44;25.30;;;18.47;;
17806;SDS011;9027;48.938;9.182;2022-12-10T06:54:16;25.80;;;17.90;;
17806;SDS011;9027;48.938;9.182;2022-12-10T06:55:49;25.93;;;17.97;;
17806;SDS011;9027;48.938;9.182;2022-12-10T06:57:21;28.93;;;18.07;;
17806;SDS011;9027;48.938;9.182;2022-12-10T06:58:53;25.73;;;17.37;;
17806;SDS011;9027;48.938;9.182;2022-12-10T07:00:25;24.30;;;17.60;;
17806;SDS011;9027;48.938;9.182;2022-12-10T07:01:57;36.07;;;23.33;;
17806;SDS011;9027;48.938;9.182;2022-12-10T07:03:29;29.43;;;19.27;;
17806;SDS011;9027;48.938;9.182;2022-12-10T07:05:01;31.07;;;20.37;;
17806;SDS011;9027;48.938;9.182;2022-12-10T07:06:32;31.03;;;20.93;;
17806;SDS011;9027;48.938;9.182;2022-12-10T07:08:04;31.87;;;20.87;;
17806;SDS011;9027;48.938;9.182;2022-12-10T07:09:35;29.97;;;19.43;;
17806;SDS011;9027;48.938;9.182;2022-12-10T07:11:11;31.20;;;21.77;;
17806;SDS011;9027;48.938;9.182;2022-12-10T07:12:46;30.90;;;21.80;;
17806;SDS011;9027;48.938;9.182;2022-12-10T07:14:18;34.33;;;23.60;;
17806;SDS011;9027;48.938;9.182;2022-12-10T07:15:50;30.17;;;22.30;;
17806;SDS011;9027;48.938;9.182;2022-12-10T07:17:22;30.53;;;21.87;;
17806;SDS011;9027;48.938;9.182;2022-12-10T07:18:55;28.00;;;20.17;;
17806;SDS011;9027;48.938;9.182;2022-12-10T07:20:29;27.60;;;19.50;;
17806;SDS011;9027;48.938;9.182;2022-12-10T07:22:01;26.97;;;19.90;;
17806;SDS011;9027;48.938;9.182;2022-12-10T07:23:33;27.53;;;19.17;;
17806;SDS011;9027;48.938;9.182;2022-12-10T07:25:05;30.03;;;19.90;;
17806;SDS011;9027;48.938;9.182;2022-12-10T07:26:39;28.33;;;20.03;;
17806;SDS011;9027;48.938;9.182;2022-12-10T07:28:12;27.63;;;19.33;;
17806;SDS011;9027;48.938;9.182;2022-12-10T07:29:44;25.97;;;18.73;;
17806;SDS011;9027;48.938;9.182;2022-12-10T07:31:16;26.30;;;18.07;;
17806;SDS011;9027;48.938;9.182;2022-12-10T07:32:48;25.37;;;18.47;;
17806;SDS011;9027;48.938;9.182;2022-12-10T07:34:20;25.50;;;19.17;;
17806;SDS011;9027;48.938;9.182;2022-12-10T07:35:52;27.93;;;18.97;;
17806;SDS011;9027;48.938;9.182;2022-12-10T07:37:24;25.67;;;18.70;;
17806;SDS011;9027;48.938;9.182;2022-12-10T07:38:56;27.53;;;19.80;;
17806;SDS011;9027;48.938;9.182;2022-12-10T07:40:27;29.53;;;21.63;;
17806;SDS011;9027;48.938;9.182;2022-12-10T07:42:01;28.27;;;20.07;;
17806;SDS011;9027;48.938;9.182;2022-12-10T07:43:33;25.77;;;19.37;;
17806;SDS011;9027;48.938;9.182;2022-12-10T07:45:05;26.67;;;18.37;;
17806;SDS011;9027;48.938;9.182;2022-12-10T07:46:38;27.20;;;19.40;;
17806;SDS011;9027;48.938;9.182;2022-12-10T07:48:10;25.67;;;19.10;;
17806;SDS011;9027;48.938;9.182;2022-12-10T07:49:42;26.70;;;18.60;;
17806;SDS011;9027;48.938;9.182;2022-12-10T07:51:14;26.87;;;18.70;;
17806;SDS011;9027;48.938;9.182;2022-12-10T07:52:47;30.40;;;19.67;;
17806;SDS011;9027;48.938;9.182;2022-12-10T07:54:20;27.53;;;18.73;;
17806;SDS011;9027;48.938;9.182;2022-12-10T07:55:52;28.67;;;19.67;;
17806;SDS011;9027;48.938;9.182;2022-12-10T07:57:25;26.10;;;18.53;;
17806;SDS011;9027;48.938;9.182;2022-12-10T07:58:58;25.10;;;18.13;;
17806;SDS011;9027;48.938;9.182;2022-12-10T08:00:30;29.50;;;19.53;;
17806;SDS011;9027;48.938;9.182;2022-12-10T08:02:02;32.63;;;21.43;;
17806;SDS011;9027;48.938;9.182;2022-12-10T08:03:33;29.90;;;20.10;;
17806;SDS011;9027;48.938;9.182;2022-12-10T08:05:05;29.30;;;19.10;;
17806;SDS011;9027;48.938;9.182;2022-12-10T08:06:38;32.07;;;21.80;;
17806;SDS011;9027;48.938;9.182;2022-12-10T08:08:10;29.07;;;20.53;;
17806;SDS011;9027;48.938;9.182;2022-12-10T08:09:42;30.00;;;19.93;;
17806;SDS011;9027;48.938;9.182;2022-12-10T08:11:14;28.10;;;20.17;;
17806;SDS011;9027;48.938;9.182;2022-12-10T08:12:49;30.77;;;18.97;;
17806;SDS011;9027;48.938;9.182;2022-12-10T08:14:21;27.90;;;19.47;;
17806;SDS011;9027;48.938;9.182;2022-12-10T08:15:53;30.53;;;19.70;;
17806;SDS011;9027;48.938;9.182;2022-12-10T08:17:25;30.23;;;20.53;;
17806;SDS011;9027;48.938;9.182;2022-12-10T08:18:58;27.00;;;20.00;;
17806;SDS011;9027;48.938;9.182;2022-12-10T08:20:31;29.33;;;20.83;;
17806;SDS011;9027;48.938;9.182;2022-12-10T08:22:03;31.73;;;21.33;;
17806;SDS011;9027;48.938;9.182;2022-12-10T08:23:35;30.23;;;19.77;;
17806;SDS011;9027;48.938;9.182;2022-12-10T08:25:07;26.77;;;19.87;;
17806;SDS011;9027;48.938;9.182;2022-12-10T08:26:39;29.27;;;21.00;;
17806;SDS011;9027;48.938;9.182;2022-12-10T08:28:12;28.47;;;19.50;;
17806;SDS011;9027;48.938;9.182;2022-12-10T08:29:44;29.80;;;20.40;;
17806;SDS011;9027;48.938;9.182;2022-12-10T08:31:17;30.23;;;21.10;;
17806;SDS011;9027;48.938;9.182;2022-12-10T08:32:51;32.90;;;21.60;;
17806;SDS011;9027;48.938;9.182;2022-12-10T08:34:23;31.30;;;21.83;;
17806;SDS011;9027;48.938;9.182;2022-12-10T08:35:56;33.50;;;21.93;;
17806;SDS011;9027;48.938;9.182;2022-12-10T08:37:29;32.80;;;20.73;;
17806;SDS011;9027;48.938;9.182;2022-12-10T08:39:01;37.20;;;22.20;;
17806;SDS011;9027;48.938;9.182;2022-12-10T08:40:33;33.37;;;21.60;;
17806;SDS011;9027;48.938;9.182;2022-12-10T08:42:05;30.53;;;19.70;;
17806;SDS011;9027;48.938;9.182;2022-12-10T08:43:38;29.27;;;19.93;;
17806;SDS011;9027;48.938;9.182;2022-12-10T08:45:10;31.67;;;20.97;;
17806;SDS011;9027;48.938;9.182;2022-12-10T08:46:42;30.97;;;21.23;;
17806;SDS011;9027;48.938;9.182;2022-12-10T08:48:14;33.00;;;22.13;;
17806;SDS011;9027;48.938;9.182;2022-12-10T08:49:46;33.57;;;21.73;;
17806;SDS011;9027;48.938;9.182;2022-12-10T08:51:19;32.40;;;20.53;;
17806;SDS011;9027;48.938;9.182;2022-12-10T08:52:51;31.60;;;20.63;;
17806;SDS011;9027;48.938;9.182;2022-12-10T08:54:23;36.63;;;21.97;;
17806;SDS011;9027;48.938;9.182;2022-12-10T08:55:55;31.23;;;20.03;;
17806;SDS011;9027;48.938;9.182;2022-12-10T08:57:27;35.67;;;21.07;;
17806;SDS011;9027;48.938;9.182;2022-12-10T08:59:00;31.07;;;20.33;;
17806;SDS011;9027;48.938;9.182;2022-12-10T09:00:32;30.97;;;20.77;;
17806;SDS011;9027;48.938;9.182;2022-12-10T09:02:04;30.53;;;20.60;;
17806;SDS011;9027;48.938;9.182;2022-12-10T09:03:36;29.03;;;19.37;;
17806;SDS011;9027;48.938;9.182;2022-12-10T09:05:09;30.07;;;19.50;;
17806;SDS011;9027;48.938;9.182;2022-12-10T09:06:41;29.33;;;20.07;;
17806;SDS011;9027;48.938;9.182;2022-12-10T09:08:13;42.67;;;28.13;;
17806;SDS011;9027;48.938;9.182;2022-12-10T09:09:44;42.80;;;26.83;;
17806;SDS011;9027;48.938;9.182;2022-12-10T09:11:17;27.87;;;20.20;;
17806;SDS011;9027;48.938;9.182;2022-12-10T09:12:53;28.43;;;18.77;;
17806;SDS011;9027;48.938;9.182;2022-12-10T09:14:26;31.77;;;20.40;;
17806;SDS011;9027;48.938;9.182;2022-12-10T09:15:58;27.33;;;18.43;;